Time;durP1;ratioP1;P1;durP2;ratioP2;P2;SDS_P1;SDS_P2;PMS_P1;PMS_P2;Temp;Humidity;BMP_temperature;BMP_pressure;BME280_temperature;BME280_humidity;BME280_pressure;Samples;Min_cycle;Max_cycle;Signal;HPM_P1;HPM_P2
2022/03/03 00:02:05;;;;;;;13.53;4.97;;;;;;;;;;10284630;23;20459;-81
2022/03/03 00:07:10;;;;;;;15.93;5.10;;;;;;;;;;10294281;28;20519;-81
2022/03/03 00:12:14;;;;;;;12.93;5.53;;;;;;;;;;10297190;28;20038;-81
2022/03/03 00:17:16;;;;;;;9.97;3.93;;;;;;;;;;10275630;28;20050;-82
2022/03/03 00:22:21;;;;;;;9.97;5.20;;;;;;;;;;10285644;28;20039;-81
2022/03/03 00:27:23;;;;;;;15.15;4.95;;;;;;;;;;10314568;23;21371;-69
2022/03/03 00:32:26;;;;;;;6.23;2.43;;;;;;;;;;10258434;28;20087;-71
2022/03/03 00:37:31;;;;;;;14.73;6.07;;;;;;;;;;10255253;28;20046;-72
2022/03/03 00:42:33;;;;;;;8.68;4.57;;;;;;;;;;10283615;23;20042;-72
2022/03/03 00:47:36;;;;;;;13.13;5.40;;;;;;;;;;10280757;28;20504;-73
2022/03/03 00:52:41;;;;;;;11.27;5.63;;;;;;;;;;10276936;28;20042;-73
2022/03/03 00:57:44;;;;;;;13.50;5.28;;;;;;;;;;10274527;28;20062;-73
2022/03/03 01:02:47;;;;;;;15.90;6.17;;;;;;;;;;10267513;28;20121;-72
2022/03/03 01:07:52;;;;;;;14.30;5.53;;;;;;;;;;10281421;28;20074;-71
2022/03/03 01:12:55;;;;;;;11.80;5.45;;;;;;;;;;10271244;28;20051;-70
2022/03/03 01:17:58;;;;;;;13.57;5.53;;;;;;;;;;10269820;28;20074;-71
2022/03/03 01:23:02;;;;;;;13.37;5.57;;;;;;;;;;10267883;28;20058;-72
2022/03/03 01:28:04;;;;;;;;;;;;;;;;;;10278788;28;20047;-72
2022/03/03 01:33:07;;;;;;;14.53;5.07;;;;;;;;;;10266543;28;19968;-72
2022/03/03 01:38:12;;;;;;;14.97;5.73;;;;;;;;;;10280742;28;20299;-72
2022/03/03 01:43:15;;;;;;;12.82;4.50;;;;;;;;;;10282642;28;20051;-73
2022/03/03 01:48:18;;;;;;;9.80;4.50;;;;;;;;;;10293914;28;20097;-72
2022/03/03 01:53:23;;;;;;;9.53;4.43;;;;;;;;;;10274529;28;20074;-72
2022/03/03 01:58:26;;;;;;;12.07;4.80;;;;;;;;;;10277732;28;20064;-74
2022/03/03 02:03:30;;;;;;;11.27;4.90;;;;;;;;;;10280886;28;20823;-73
2022/03/03 02:08:34;;;;;;;15.80;5.83;;;;;;;;;;10279085;28;20090;-71
2022/03/03 02:13:38;;;;;;;13.70;5.93;;;;;;;;;;10279579;28;20047;-70
2022/03/03 02:18:45;;;;;;;13.20;5.27;;;;;;;;;;10278353;28;20158;-72
2022/03/03 02:23:55;;;;;;;13.73;5.53;;;;;;;;;;10280386;28;20239;-71
2022/03/03 02:28:59;;;;;;;13.83;6.17;;;;;;;;;;10275909;28;20034;-71
2022/03/03 02:34:13;;;;;;;15.70;6.00;;;;;;;;;;10259633;28;20492;-72
2022/03/03 02:39:17;;;;;;;12.13;4.17;;;;;;;;;;10277969;28;20035;-71
2022/03/03 02:44:20;;;;;;;13.70;6.00;;;;;;;;;;10265001;28;20184;-72
2022/03/03 02:49:25;;;;;;;12.98;4.78;;;;;;;;;;10259074;28;20034;-73
2022/03/03 02:54:30;;;;;;;13.70;6.00;;;;;;;;;;10260196;28;20043;-73
2022/03/03 02:59:34;;;;;;;15.67;4.67;;;;;;;;;;10278622;28;20038;-71
2022/03/03 03:04:38;;;;;;;11.63;5.33;;;;;;;;;;10261986;28;20038;-74
2022/03/03 03:09:42;;;;;;;14.47;5.80;;;;;;;;;;10262470;28;20051;-73
2022/03/03 03:14:45;;;;;;;;;;;;;;;;;;10282759;28;20047;-72
2022/03/03 03:19:48;;;;;;;17.73;5.57;;;;;;;;;;10261240;28;19925;-74
2022/03/03 03:24:53;;;;;;;14.10;5.53;;;;;;;;;;10258877;28;20045;-73
2022/03/03 03:29:56;;;;;;;10.23;4.43;;;;;;;;;;10274128;28;20027;-72
2022/03/03 03:34:59;;;;;;;9.47;3.80;;;;;;;;;;10261120;28;20341;-71
2022/03/03 03:40:04;;;;;;;11.90;4.33;;;;;;;;;;10257088;28;20134;-73
2022/03/03 03:45:09;;;;;;;12.63;5.63;;;;;;;;;;10280070;28;20100;-74
2022/03/03 03:50:12;;;;;;;16.90;4.28;;;;;;;;;;10261672;28;20046;-74
2022/03/03 03:55:17;;;;;;;11.52;5.43;;;;;;;;;;10268460;28;20031;-71
2022/03/03 04:00:20;;;;;;;11.13;5.27;;;;;;;;;;10262823;28;20046;-72
2022/03/03 04:05:23;;;;;;;11.37;3.87;;;;;;;;;;10273680;28;20521;-70
2022/03/03 04:10:28;;;;;;;7.93;4.40;;;;;;;;;;10257255;28;20035;-72
2022/03/03 04:15:31;;;;;;;12.53;4.83;;;;;;;;;;10272839;28;20073;-72
2022/03/03 04:20:35;;;;;;;13.83;5.83;;;;;;;;;;10257927;28;20039;-73
2022/03/03 04:25:39;;;;;;;14.67;5.57;;;;;;;;;;10257600;28;20131;-74
2022/03/03 04:30:43;;;;;;;19.57;6.07;;;;;;;;;;10272439;28;20094;-71
2022/03/03 04:35:46;;;;;;;16.07;6.40;;;;;;;;;;10260045;28;20120;-71
2022/03/03 04:40:51;;;;;;;15.30;5.67;;;;;;;;;;10265174;28;20042;-72
2022/03/03 04:45:54;;;;;;;14.17;5.97;;;;;;;;;;10298587;28;20070;-74
2022/03/03 04:50:58;;;;;;;9.52;4.45;;;;;;;;;;10266434;28;20438;-74
2022/03/03 04:56:02;;;;;;;;;;;;;;;;;;10288915;28;20113;-73
2022/03/03 05:01:07;;;;;;;11.97;4.33;;;;;;;;;;10284091;28;19939;-73
2022/03/03 05:06:09;;;;;;;;;;;;;;;;;;10283217;28;20038;-73
2022/03/03 05:11:13;;;;;;;8.90;4.47;;;;;;;;;;10274260;28;19922;-74
2022/03/03 05:16:17;;;;;;;12.20;5.60;;;;;;;;;;10270043;28;20085;-74
2022/03/03 05:21:20;;;;;;;13.03;5.17;;;;;;;;;;10280384;28;20191;-73
2022/03/03 05:26:23;;;;;;;11.17;4.07;;;;;;;;;;10277561;28;20592;-74
2022/03/03 05:31:28;;;;;;;11.50;5.77;;;;;;;;;;10268130;28;20523;-73
2022/03/03 05:36:31;;;;;;;16.97;6.53;;;;;;;;;;10265513;28;20054;-72
2022/03/03 05:41:35;;;;;;;12.87;5.07;;;;;;;;;;10281192;28;20517;-73
2022/03/03 05:46:39;;;;;;;17.20;7.38;;;;;;;;;;10268463;28;20090;-74
2022/03/03 05:51:43;;;;;;;14.70;6.63;;;;;;;;;;10277288;28;20050;-74
2022/03/03 05:56:47;;;;;;;18.13;7.07;;;;;;;;;;10275361;28;20043;-73
2022/03/03 06:01:51;;;;;;;14.25;5.63;;;;;;;;;;10267550;28;20109;-73
2022/03/03 06:06:54;;;;;;;;;;;;;;;;;;10281788;28;20057;-73
2022/03/03 06:12:02;;;;;;;16.53;5.90;;;;;;;;;;10297329;28;19923;-73
2022/03/03 06:17:08;;;;;;;13.17;7.13;;;;;;;;;;10268382;28;20109;-74
2022/03/03 06:22:11;;;;;;;13.53;4.33;;;;;;;;;;10267507;28;20736;-74
2022/03/03 06:27:14;;;;;;;21.98;6.85;;;;;;;;;;10268317;28;20066;-74
2022/03/03 06:32:19;;;;;;;6.93;2.03;;;;;;;;;;10282604;28;20042;-73
2022/03/03 06:37:23;;;;;;;20.17;7.40;;;;;;;;;;10292438;28;20488;-73
2022/03/03 06:42:27;;;;;;;23.10;7.67;;;;;;;;;;10277345;28;20051;-73
2022/03/03 06:47:34;;;;;;;21.67;8.10;;;;;;;;;;10283699;28;20046;-72
2022/03/03 06:52:37;;;;;;;18.98;8.07;;;;;;;;;;10285927;28;20035;-73
2022/03/03 06:57:41;;;;;;;17.00;8.53;;;;;;;;;;10280719;28;20141;-74
2022/03/03 07:02:46;;;;;;;18.03;8.47;;;;;;;;;;10290512;28;20038;-74
2022/03/03 07:07:51;;;;;;;19.50;9.25;;;;;;;;;;10286885;28;20338;-74
2022/03/03 07:12:55;;;;;;;18.15;8.57;;;;;;;;;;10290470;28;20034;-72
2022/03/03 07:18:03;;;;;;;18.05;8.90;;;;;;;;;;10276164;28;20055;-74
2022/03/03 07:23:09;;;;;;;14.15;9.23;;;;;;;;;;10298109;28;20060;-74
2022/03/03 07:28:19;;;;;;;22.25;11.27;;;;;;;;;;10278260;28;20070;-75
2022/03/03 07:33:22;;;;;;;;;;;;;;;;;;10264660;28;20038;-75
2022/03/03 07:38:25;;;;;;;;;;;;;;;;;;10282932;28;20006;-74
2022/03/03 07:43:29;;;;;;;16.15;8.18;;;;;;;;;;10295428;28;19928;-75
2022/03/03 07:48:33;;;;;;;13.45;8.32;;;;;;;;;;10268294;28;20049;-75
2022/03/03 07:53:37;;;;;;;15.05;7.93;;;;;;;;;;10277790;28;20101;-75
2022/03/03 07:58:44;;;;;;;16.65;9.25;;;;;;;;;;10287669;23;20050;-70
2022/03/03 08:03:47;;;;;;;16.45;9.77;;;;;;;;;;10233045;28;20054;-70
2022/03/03 08:08:53;;;;;;;17.33;9.85;;;;;;;;;;10222001;28;20086;-70
2022/03/03 08:13:58;;;;;;;21.05;11.00;;;;;;;;;;10236077;28;20471;-69
2022/03/03 08:19:02;;;;;;;17.60;11.00;;;;;;;;;;10286016;23;20570;-69
2022/03/03 08:24:05;;;;;;;19.88;12.18;;;;;;;;;;10284132;28;20034;-71
2022/03/03 08:29:11;;;;;;;22.80;12.73;;;;;;;;;;10283088;28;21367;-69
2022/03/03 08:34:16;;;;;;;23.05;12.90;;;;;;;;;;10285000;28;20066;-70
2022/03/03 08:39:21;;;;;;;21.88;13.50;;;;;;;;;;10272700;28;20051;-70
2022/03/03 08:44:27;;;;;;;22.17;13.43;;;;;;;;;;10284475;28;20041;-69
2022/03/03 08:49:31;;;;;;;19.48;12.73;;;;;;;;;;10263396;28;20511;-72
2022/03/03 08:54:34;;;;;;;20.58;12.85;;;;;;;;;;10283932;28;20499;-73
2022/03/03 08:59:39;;;;;;;19.90;12.63;;;;;;;;;;10293754;28;20039;-71
2022/03/03 09:04:42;;;;;;;19.02;13.40;;;;;;;;;;10301123;28;20034;-72
2022/03/03 09:09:45;;;;;;;21.38;13.50;;;;;;;;;;10303888;28;20038;-71
2022/03/03 09:14:50;;;;;;;19.65;13.02;;;;;;;;;;10282072;28;20043;-72
2022/03/03 09:19:53;;;;;;;19.73;13.82;;;;;;;;;;10288763;28;20048;-72
2022/03/03 09:24:56;;;;;;;20.67;14.88;;;;;;;;;;10267714;28;20043;-73
2022/03/03 09:30:01;;;;;;;22.88;14.65;;;;;;;;;;10276466;28;20055;-73
2022/03/03 09:35:05;;;;;;;22.23;15.45;;;;;;;;;;10268817;28;20539;-75
2022/03/03 09:40:10;;;;;;;24.80;14.38;;;;;;;;;;10268248;28;20102;-74
2022/03/03 09:45:15;;;;;;;22.08;14.13;;;;;;;;;;10272128;28;20039;-72
2022/03/03 09:50:18;;;;;;;21.83;13.75;;;;;;;;;;10282969;28;20578;-73
2022/03/03 09:55:22;;;;;;;21.88;13.23;;;;;;;;;;10289886;28;20030;-71
2022/03/03 10:00:29;;;;;;;18.75;13.20;;;;;;;;;;10265491;28;20043;-73
2022/03/03 10:05:34;;;;;;;16.95;13.05;;;;;;;;;;10279837;28;20406;-72
2022/03/03 10:10:39;;;;;;;17.27;12.63;;;;;;;;;;10281069;28;20042;-71
2022/03/03 10:15:43;;;;;;;18.48;12.98;;;;;;;;;;10281213;28;20783;-73
2022/03/03 10:20:52;;;;;;;16.20;12.65;;;;;;;;;;10266717;28;20061;-72
2022/03/03 10:25:56;;;;;;;15.52;12.18;;;;;;;;;;10262161;28;20201;-73
2022/03/03 10:31:02;;;;;;;13.63;11.40;;;;;;;;;;10278906;28;20043;-73
2022/03/03 10:36:10;;;;;;;15.48;11.70;;;;;;;;;;10266447;28;20046;-71
2022/03/03 10:41:33;;;;;;;16.60;11.30;;;;;;;;;;10284524;28;20058;-71
2022/03/03 10:46:38;;;;;;;27.67;17.98;;;;;;;;;;10280175;28;20070;-71
2022/03/03 10:51:42;;;;;;;19.27;12.70;;;;;;;;;;10284003;28;20054;-73
2022/03/03 10:56:47;;;;;;;17.50;12.20;;;;;;;;;;10277669;28;20035;-73
2022/03/03 11:01:52;;;;;;;20.00;12.60;;;;;;;;;;10274574;28;20101;-73
2022/03/03 11:06:56;;;;;;;14.57;10.85;;;;;;;;;;10279753;28;20117;-73
2022/03/03 11:12:00;;;;;;;14.48;10.80;;;;;;;;;;10267023;28;20133;-72
2022/03/03 11:17:05;;;;;;;14.88;12.00;;;;;;;;;;10289032;28;20043;-71
2022/03/03 11:22:09;;;;;;;15.05;11.18;;;;;;;;;;10274329;28;20082;-70
2022/03/03 11:27:12;;;;;;;16.90;11.98;;;;;;;;;;10275385;28;20045;-71
2022/03/03 11:32:17;;;;;;;18.45;12.05;;;;;;;;;;10267699;28;20182;-71
2022/03/03 11:37:22;;;;;;;16.10;10.68;;;;;;;;;;10275165;28;20093;-73
2022/03/03 11:42:27;;;;;;;16.35;12.13;;;;;;;;;;10277949;28;20047;-71
2022/03/03 11:47:33;;;;;;;16.83;11.98;;;;;;;;;;10275461;28;20431;-72
2022/03/03 11:52:37;;;;;;;13.90;10.77;;;;;;;;;;10282659;28;20031;-70
2022/03/03 11:57:41;;;;;;;13.10;10.27;;;;;;;;;;10275532;28;20053;-71
2022/03/03 12:02:53;;;;;;;13.48;9.80;;;;;;;;;;10276627;28;20043;-72
2022/03/03 12:07:57;;;;;;;11.48;9.57;;;;;;;;;;10266865;28;20047;-71
2022/03/03 12:13:15;;;;;;;12.88;8.98;;;;;;;;;;10258807;28;20141;-71
2022/03/03 12:18:19;;;;;;;13.98;9.57;;;;;;;;;;10250363;28;20063;-71
2022/03/03 12:23:32;;;;;;;14.68;9.45;;;;;;;;;;10278265;28;20062;-71
2022/03/03 12:28:36;;;;;;;12.65;9.50;;;;;;;;;;10280347;28;20410;-71
2022/03/03 12:33:40;;;;;;;15.43;9.45;;;;;;;;;;10261704;28;20043;-71
2022/03/03 12:38:43;;;;;;;12.35;9.10;;;;;;;;;;10276308;28;20153;-70
2022/03/03 12:43:46;;;;;;;13.40;9.35;;;;;;;;;;10266815;28;20491;-71
2022/03/03 12:48:50;;;;;;;16.73;9.57;;;;;;;;;;10259341;28;20051;-69
2022/03/03 12:53:54;;;;;;;12.88;9.48;;;;;;;;;;10276104;28;20048;-69
2022/03/03 12:58:58;;;;;;;14.25;9.52;;;;;;;;;;10259316;28;20232;-70
2022/03/03 13:04:03;;;;;;;12.27;8.38;;;;;;;;;;10259922;28;20043;-71
2022/03/03 13:09:07;;;;;;;14.88;9.35;;;;;;;;;;10268924;28;20043;-71
2022/03/03 13:14:11;;;;;;;13.75;9.27;;;;;;;;;;10262945;28;20039;-70
2022/03/03 13:19:15;;;;;;;13.10;8.50;;;;;;;;;;10267796;28;20499;-70
2022/03/03 13:24:26;;;;;;;12.07;7.63;;;;;;;;;;10270561;28;20426;-69
2022/03/03 13:29:30;;;;;;;13.35;7.18;;;;;;;;;;10266803;28;20057;-69
2022/03/03 13:34:36;;;;;;;11.63;7.45;;;;;;;;;;10279998;28;20384;-67
2022/03/03 13:39:39;;;;;;;11.05;6.75;;;;;;;;;;10277720;28;20042;-70
2022/03/03 13:44:57;;;;;;;10.70;6.90;;;;;;;;;;10280904;28;20035;-70
2022/03/03 13:50:02;;;;;;;12.32;6.78;;;;;;;;;;10262306;28;20054;-70
2022/03/03 13:55:13;;;;;;;11.90;7.40;;;;;;;;;;10270694;28;20030;-69
2022/03/03 14:00:21;;;;;;;14.95;8.35;;;;;;;;;;10269379;28;20141;-70
2022/03/03 14:05:35;;;;;;;14.85;8.10;;;;;;;;;;10279354;28;20035;-70
2022/03/03 14:10:48;;;;;;;12.13;6.80;;;;;;;;;;10269664;28;20396;-71
2022/03/03 14:15:52;;;;;;;14.63;7.35;;;;;;;;;;10277556;28;20699;-70
2022/03/03 14:20:57;;;;;;;12.52;7.28;;;;;;;;;;10276803;23;20118;-77
2022/03/03 14:26:01;;;;;;;12.02;7.20;;;;;;;;;;10264089;28;20038;-78
2022/03/03 14:31:04;;;;;;;14.57;7.35;;;;;;;;;;10251810;28;20042;-77
2022/03/03 14:36:06;;;;;;;;;;;;;;;;;;10231113;29;20483;-78
2022/03/03 14:41:11;;;;;;;11.10;6.80;;;;;;;;;;10234583;28;19934;-79
2022/03/03 14:46:14;;;;;;;11.27;6.10;;;;;;;;;;10229994;28;20153;-80
2022/03/03 14:51:17;;;;;;;12.13;5.93;;;;;;;;;;10246483;28;20527;-79
2022/03/03 14:56:21;;;;;;;11.90;5.80;;;;;;;;;;10252234;28;20027;-77
2022/03/03 15:01:24;;;;;;;11.57;6.13;;;;;;;;;;10225940;29;20146;-78
2022/03/03 15:06:28;;;;;;;10.55;5.63;;;;;;;;;;10246088;29;20036;-77
2022/03/03 15:11:32;;;;;;;13.43;6.28;;;;;;;;;;10246263;28;20050;-78
2022/03/03 15:16:35;;;;;;;11.05;6.32;;;;;;;;;;10243670;28;20039;-77
2022/03/03 15:21:39;;;;;;;10.70;6.00;;;;;;;;;;10249662;28;20039;-78
2022/03/03 15:26:43;;;;;;;11.88;6.50;;;;;;;;;;10244348;28;20038;-79
2022/03/03 15:31:47;;;;;;;10.65;4.68;;;;;;;;;;10246142;28;20373;-78
2022/03/03 15:36:51;;;;;;;12.88;5.53;;;;;;;;;;10231292;28;20119;-78
2022/03/03 15:41:56;;;;;;;10.25;5.13;;;;;;;;;;10247924;28;20204;-77
2022/03/03 15:46:59;;;;;;;11.88;5.80;;;;;;;;;;10237952;28;20043;-78
2022/03/03 15:52:04;;;;;;;9.43;4.38;;;;;;;;;;10238619;28;20106;-79
2022/03/03 15:57:09;;;;;;;12.55;4.80;;;;;;;;;;10234674;28;20124;-78
2022/03/03 16:02:14;;;;;;;8.60;3.78;;;;;;;;;;10262698;29;20039;-77
2022/03/03 16:07:17;;;;;;;7.53;3.53;;;;;;;;;;10264272;28;20047;-77
2022/03/03 16:12:24;;;;;;;9.38;4.45;;;;;;;;;;10247934;29;20502;-78
2022/03/03 16:17:28;;;;;;;6.53;3.70;;;;;;;;;;10256635;29;20091;-76
2022/03/03 16:22:31;;;;;;;13.63;3.37;;;;;;;;;;10253178;29;20054;-78
2022/03/03 16:27:35;;;;;;;8.68;3.88;;;;;;;;;;10240941;28;20471;-79
2022/03/03 16:32:40;;;;;;;8.15;3.33;;;;;;;;;;10231383;28;20319;-78
2022/03/03 16:37:44;;;;;;;9.50;3.80;;;;;;;;;;10261182;28;20039;-79
2022/03/03 16:42:48;;;;;;;10.18;4.35;;;;;;;;;;10242600;29;20047;-77
2022/03/03 16:47:53;;;;;;;9.00;4.13;;;;;;;;;;10259700;28;20031;-78
2022/03/03 16:52:57;;;;;;;8.68;3.90;;;;;;;;;;10246685;29;20047;-77
2022/03/03 16:58:01;;;;;;;9.53;3.73;;;;;;;;;;10240857;28;20035;-76
2022/03/03 17:03:05;;;;;;;7.90;4.00;;;;;;;;;;10258900;29;20106;-78
2022/03/03 17:08:09;;;;;;;15.57;5.78;;;;;;;;;;10280905;28;20043;-76
2022/03/03 17:13:14;;;;;;;12.73;4.78;;;;;;;;;;10259651;29;20044;-77
2022/03/03 17:18:18;;;;;;;9.60;4.07;;;;;;;;;;10241799;28;20102;-77
2022/03/03 17:23:20;;;;;;;14.32;4.85;;;;;;;;;;10251174;29;20043;-76
2022/03/03 17:28:25;;;;;;;13.45;5.07;;;;;;;;;;10243853;28;20044;-77
2022/03/03 17:33:28;;;;;;;13.10;5.20;;;;;;;;;;10249826;29;20047;-77
2022/03/03 17:38:32;;;;;;;13.23;5.10;;;;;;;;;;10257172;28;20035;-76
2022/03/03 17:43:37;;;;;;;16.33;4.82;;;;;;;;;;10249505;29;20547;-77
2022/03/03 17:48:40;;;;;;;15.27;5.05;;;;;;;;;;10248556;28;20043;-77
2022/03/03 17:53:43;;;;;;;13.67;5.10;;;;;;;;;;10255419;29;20040;-77
2022/03/03 17:58:47;;;;;;;12.32;4.85;;;;;;;;;;10232004;28;20048;-76
2022/03/03 18:03:50;;;;;;;12.63;4.83;;;;;;;;;;10239813;29;20051;-76
2022/03/03 18:08:53;;;;;;;14.63;4.90;;;;;;;;;;10252340;28;20043;-78
2022/03/03 18:13:58;;;;;;;13.27;4.77;;;;;;;;;;10246343;29;20052;-76
2022/03/03 18:19:02;;;;;;;10.97;5.10;;;;;;;;;;10223989;28;20099;-76
2022/03/03 18:24:05;;;;;;;11.80;5.00;;;;;;;;;;10233726;29;20054;-76
2022/03/03 18:29:10;;;;;;;9.55;4.38;;;;;;;;;;10228781;28;20904;-77
2022/03/03 18:34:14;;;;;;;15.63;5.23;;;;;;;;;;10256382;29;20067;-76
2022/03/03 18:39:17;;;;;;;;;;;;;;;;;;10240943;28;20044;-77
2022/03/03 18:44:21;;;;;;;11.90;5.03;;;;;;;;;;10227766;29;19988;-76
2022/03/03 18:49:24;;;;;;;;;;;;;;;;;;10230668;28;20046;-76
2022/03/03 18:54:27;;;;;;;17.47;5.33;;;;;;;;;;10238120;28;19970;-77
2022/03/03 18:59:31;;;;;;;9.87;4.33;;;;;;;;;;10237446;29;20527;-77
2022/03/03 19:04:34;;;;;;;9.90;4.40;;;;;;;;;;10243249;29;20391;-77
2022/03/03 19:09:37;;;;;;;12.67;5.23;;;;;;;;;;10242218;28;20043;-77
2022/03/03 19:14:42;;;;;;;10.67;4.97;;;;;;;;;;10242512;28;20130;-77
2022/03/03 19:19:45;;;;;;;12.23;4.97;;;;;;;;;;10240566;28;20166;-76
2022/03/03 19:24:50;;;;;;;15.02;6.53;;;;;;;;;;10225806;28;20130;-77
2022/03/03 19:29:54;;;;;;;19.27;6.70;;;;;;;;;;10240760;28;20047;-75
2022/03/03 19:34:57;;;;;;;14.77;5.93;;;;;;;;;;10239102;29;20218;-76
2022/03/03 19:40:00;;;;;;;14.70;5.50;;;;;;;;;;10227383;28;20046;-76
2022/03/03 19:45:04;;;;;;;17.07;5.90;;;;;;;;;;10238575;28;20039;-77
2022/03/03 19:50:09;;;;;;;16.57;5.37;;;;;;;;;;10232425;28;20118;-76
2022/03/03 19:55:14;;;;;;;16.10;5.57;;;;;;;;;;10241298;28;20035;-76
2022/03/03 20:00:18;;;;;;;18.40;5.80;;;;;;;;;;10221394;28;20109;-76
2022/03/03 20:05:21;;;;;;;14.27;4.93;;;;;;;;;;10235380;29;20038;-76
2022/03/03 20:15:48;;;;;;;15.67;5.37;;;;;;;;;;10269842;28;20464;-71
2022/03/03 20:20:51;;;;;;;;;;;;;;;;;;10270339;28;20089;-73
2022/03/03 20:25:54;;;;;;;21.13;5.77;;;;;;;;;;10271123;28;20458;-72
2022/03/03 20:30:59;;;;;;;14.20;5.53;;;;;;;;;;10256540;23;20065;-66
2022/03/03 20:36:02;;;;;;;13.93;5.15;;;;;;;;;;10248358;28;20049;-69
2022/03/03 20:41:06;;;;;;;17.17;6.23;;;;;;;;;;10195509;29;20064;-69
2022/03/03 20:46:11;;;;;;;17.03;6.30;;;;;;;;;;10183564;29;20040;-68
2022/03/03 20:51:14;;;;;;;16.03;5.80;;;;;;;;;;10199224;29;20040;-68
2022/03/03 20:56:17;;;;;;;15.90;5.50;;;;;;;;;;10184168;29;20493;-69
2022/03/03 21:01:24;;;;;;;20.07;6.73;;;;;;;;;;10178340;29;20405;-68
2022/03/03 21:06:27;;;;;;;23.00;6.40;;;;;;;;;;10179020;29;20044;-68
2022/03/03 21:11:30;;;;;;;18.10;6.70;;;;;;;;;;10198574;29;20071;-67
2022/03/03 21:16:34;;;;;;;17.43;5.93;;;;;;;;;;10212044;29;20052;-67
2022/03/03 21:21:37;;;;;;;18.57;6.50;;;;;;;;;;10186117;29;20659;-66
2022/03/03 21:26:40;;;;;;;20.30;6.67;;;;;;;;;;10188795;29;20047;-67
2022/03/03 21:31:46;;;;;;;17.10;6.47;;;;;;;;;;10200967;29;20051;-67
2022/03/03 21:36:50;;;;;;;17.43;6.40;;;;;;;;;;10201485;29;20040;-67
2022/03/03 21:41:54;;;;;;;17.83;6.83;;;;;;;;;;10197737;29;20127;-67
2022/03/03 21:47:03;;;;;;;22.70;7.17;;;;;;;;;;10185467;29;20032;-63
2022/03/03 21:52:06;;;;;;;19.87;6.63;;;;;;;;;;10186210;29;20384;-66
2022/03/03 21:57:09;;;;;;;18.63;6.75;;;;;;;;;;10193938;29;20044;-67
2022/03/03 22:02:18;;;;;;;15.63;5.05;;;;;;;;;;10199428;29;20519;-67
2022/03/03 22:07:22;;;;;;;10.43;3.00;;;;;;;;;;10199273;29;20379;-67
2022/03/03 22:12:26;;;;;;;18.50;6.07;;;;;;;;;;10182239;29;20146;-66
2022/03/03 22:17:32;;;;;;;18.00;6.40;;;;;;;;;;10197462;29;20042;-67
2022/03/03 22:22:35;;;;;;;22.83;7.53;;;;;;;;;;10174494;29;20067;-68
2022/03/03 22:27:39;;;;;;;30.80;7.05;;;;;;;;;;10198961;29;20394;-65
2022/03/03 22:32:46;;;;;;;15.18;5.47;;;;;;;;;;10189538;29;20048;-67
2022/03/03 22:37:49;;;;;;;12.03;5.73;;;;;;;;;;10179603;28;20040;-67
2022/03/03 22:42:52;;;;;;;11.73;4.40;;;;;;;;;;10193991;29;20050;-67
2022/03/03 22:47:56;;;;;;;10.53;3.53;;;;;;;;;;10195628;29;20126;-68
2022/03/03 22:53:00;;;;;;;11.93;4.57;;;;;;;;;;10178223;29;20131;-65
2022/03/03 22:58:03;;;;;;;5.50;3.10;;;;;;;;;;10193763;29;20084;-67
2022/03/03 23:08:28;;;;;;;15.53;5.23;;;;;;;;;;10190571;29;20051;-66
2022/03/03 23:13:32;;;;;;;21.07;5.83;;;;;;;;;;10197171;29;20368;-68
2022/03/03 23:18:37;;;;;;;22.27;6.70;;;;;;;;;;10195967;29;20051;-66
2022/03/03 23:23:40;;;;;;;21.30;6.80;;;;;;;;;;10181303;29;20098;-66
2022/03/03 23:28:44;;;;;;;21.55;7.38;;;;;;;;;;10193044;29;20044;-67
2022/03/03 23:33:49;;;;;;;20.15;6.85;;;;;;;;;;10195949;29;20047;-65
2022/03/03 23:38:52;;;;;;;18.33;6.10;;;;;;;;;;10192547;29;20036;-66
2022/03/03 23:43:55;;;;;;;20.23;7.17;;;;;;;;;;10196496;29;20039;-66
2022/03/03 23:48:59;;;;;;;18.17;6.33;;;;;;;;;;10176586;29;20051;-66
2022/03/03 23:54:03;;;;;;;23.17;5.80;;;;;;;;;;10192939;29;20039;-66
2022/03/03 23:59:06;;;;;;;26.70;7.50;;;;;;;;;;10173700;29;20433;-66
